Time;durP1;ratioP1;P1;durP2;ratioP2;P2;SDS_P1;SDS_P2;PMS_P1;PMS_P2;Temp;Humidity;BMP_temperature;BMP_pressure;BME280_temperature;BME280_humidity;BME280_pressure;Samples;Min_cycle;Max_cycle;Signal;HPM_P1;HPM_P2
2023/02/26 00:01:44;;;;;;;2.87;1.37;;;0.20;99.90;;;-141.84;76.18;18818.09;5073322;28;20215;-64
2023/02/26 00:04:14;;;;;;;2.80;1.30;;;0.20;99.90;;;-141.84;76.97;18822.19;5073750;28;20227;-65
2023/02/26 00:06:51;;;;;;;1.83;1.00;;;0.10;99.90;;;-141.84;76.91;18805.91;5073700;28;20235;-65
2023/02/26 00:09:24;;;;;;;1.73;1.23;;;0.20;99.90;;;-141.84;76.66;18795.75;5073585;28;20261;-65
2023/02/26 00:11:53;;;;;;;1.00;0.90;;;0.20;99.90;;;-141.84;77.16;18807.94;5073274;28;20255;-66
2023/02/26 00:14:23;;;;;;;1.23;1.10;;;0.20;99.90;;;-141.84;75.91;18812.00;5073280;28;20276;-66
2023/02/26 00:17:09;;;;;;;2.37;1.20;;;0.30;99.90;;;-141.84;76.51;18803.88;5073169;28;20195;-67
2023/02/26 00:19:40;;;;;;;2.47;1.03;;;0.20;99.90;;;-141.84;76.40;18812.00;5073193;28;20458;-65
2023/02/26 00:22:09;;;;;;;2.23;0.80;;;0.30;99.90;;;-141.84;75.30;18816.06;5073005;28;20239;-65
2023/02/26 00:24:37;;;;;;;1.23;1.10;;;0.40;99.90;;;-141.84;76.07;18818.09;5073205;28;20231;-64
2023/02/26 00:27:06;;;;;;;3.03;1.13;;;0.30;99.90;;;-141.84;76.28;18814.03;5061091;28;20230;-64
2023/02/26 00:29:35;;;;;;;2.87;1.30;;;0.20;99.90;;;-141.84;76.49;18836.41;5054755;28;20722;-65
2023/02/26 00:32:04;;;;;;;1.70;1.00;;;0.20;99.90;;;-141.84;76.33;18824.22;5072883;28;20217;-65
2023/02/26 00:34:33;;;;;;;3.00;1.20;;;0.20;99.90;;;-141.84;75.75;18793.72;5072874;28;20221;-66
2023/02/26 00:37:17;;;;;;;2.10;1.20;;;0.30;99.90;;;-141.84;76.93;18826.25;5072521;28;20311;-64
2023/02/26 00:40:01;;;;;;;4.23;1.10;;;0.20;99.90;;;-141.84;76.98;18842.50;5072488;28;20781;-65
2023/02/26 00:42:30;;;;;;;1.10;1.00;;;0.20;99.90;;;-141.84;76.44;18824.22;5072415;28;20222;-65
2023/02/26 00:44:59;;;;;;;2.37;1.00;;;0.20;99.90;;;-141.84;76.86;18789.66;5072383;28;20662;-65
2023/02/26 00:47:40;;;;;;;2.10;1.03;;;0.20;99.90;;;-141.84;77.00;18781.53;5071778;28;20220;-66
2023/02/26 00:50:18;;;;;;;2.20;1.10;;;0.10;99.90;;;-141.84;76.67;18828.28;5072290;28;20303;-64
2023/02/26 00:53:03;;;;;;;2.67;1.20;;;0.20;99.90;;;-141.84;75.77;18830.31;5071969;28;20188;-64
2023/02/26 00:55:31;;;;;;;1.63;1.23;;;0.20;99.90;;;-141.84;75.88;18828.28;5072595;28;20183;-65
2023/02/26 00:57:59;;;;;;;4.20;1.93;;;0.20;99.90;;;-141.84;76.28;18816.06;5072183;28;20248;-64
2023/02/26 01:00:28;;;;;;;1.87;1.27;;;0.20;99.90;;;-141.84;76.22;18826.25;5071985;28;20274;-65
2023/02/26 01:02:57;;;;;;;1.50;1.10;;;0.20;99.90;;;-141.84;76.31;18816.06;5071928;28;20228;-65
2023/02/26 01:05:26;;;;;;;2.10;1.27;;;0.20;99.90;;;-141.84;76.60;18812.00;5071759;28;20235;-65
2023/02/26 01:08:09;;;;;;;1.70;1.30;;;0.20;99.90;;;-141.84;76.35;18826.25;5072287;28;20551;-66
2023/02/26 01:10:38;;;;;;;2.23;1.30;;;0.20;99.90;;;-141.84;76.33;18812.00;5072848;28;20185;-65
2023/02/26 01:13:07;;;;;;;2.53;1.30;;;0.20;99.90;;;-141.84;75.96;18793.72;5071896;28;20234;-64
2023/02/26 01:15:36;;;;;;;2.43;1.40;;;0.20;99.90;;;-141.84;76.60;18814.03;5071753;28;20225;-65
2023/02/26 01:18:13;;;;;;;1.80;1.40;;;0.20;99.90;;;-141.84;76.01;18814.03;5057034;28;20226;-65
2023/02/26 01:20:50;;;;;;;9.20;1.83;;;0.20;99.90;;;-141.84;76.77;18785.59;5071641;28;20230;-64
2023/02/26 01:23:26;;;;;;;2.53;1.20;;;0.10;99.90;;;-141.84;76.95;18787.63;5071936;28;20711;-65
2023/02/26 01:25:59;;;;;;;4.20;1.53;;;0.10;99.90;;;-141.84;77.18;18805.91;5072049;28;20618;-65
2023/02/26 01:28:28;;;;;;;2.27;1.30;;;0.10;99.90;;;-141.84;77.61;18814.03;5072214;28;20630;-65
2023/02/26 01:31:04;;;;;;;2.50;1.40;;;0.10;99.90;;;-141.84;77.69;18787.63;5071633;28;20724;-64
2023/02/26 01:33:44;;;;;;;1.83;1.10;;;0.10;99.90;;;-141.84;78.08;18779.50;5071465;28;20601;-64
2023/02/26 01:36:21;;;;;;;1.60;1.33;;;0.10;99.90;;;-141.84;78.75;18789.66;5071689;28;20250;-67
2023/02/26 01:39:00;;;;;;;2.50;1.30;;;0.00;99.90;;;-141.84;78.53;18812.00;5071454;28;20243;-65
2023/02/26 01:41:33;;;;;;;2.23;1.30;;;0.00;99.90;;;-141.84;78.34;18809.97;5071126;28;20251;-64
2023/02/26 01:44:14;;;;;;;1.80;1.50;;;0.10;99.90;;;-141.84;78.72;18791.69;5071290;28;20211;-64
2023/02/26 01:47:07;;;;;;;1.97;1.37;;;0.10;99.90;;;-141.84;78.85;18793.72;5071633;28;20193;-67
2023/02/26 01:49:36;;;;;;;2.00;1.50;;;;;;;-141.84;79.26;18777.47;5071376;28;20237;-64
2023/02/26 01:52:06;;;;;;;2.50;1.70;;;;;;;-141.84;79.84;18789.66;5070976;28;20230;-65
2023/02/26 01:54:38;;;;;;;3.83;1.70;;;;;;;-141.84;79.95;18787.63;5071144;28;20234;-65
2023/02/26 01:57:10;;;;;;;2.10;1.50;;;;;;;-141.84;79.31;18791.69;5070957;28;20243;-65
2023/02/26 01:59:41;;;;;;;2.50;1.57;;;;;;;-141.84;79.54;18793.72;5071151;28;20221;-64
2023/02/26 02:02:13;;;;;;;3.33;1.90;;;;;;;-141.84;79.85;18769.34;5070628;28;20239;-65
2023/02/26 02:04:43;;;;;;;2.77;1.70;;;-0.10;99.90;;;-141.84;79.74;18777.47;5070496;28;20220;-65
2023/02/26 02:07:11;;;;;;;2.53;1.47;;;0.10;99.90;;;-141.84;79.95;18791.69;5071204;28;20223;-66
2023/02/26 02:09:42;;;;;;;2.83;1.50;;;0.10;99.90;;;-141.84;80.58;18767.31;5070752;28;20225;-64
2023/02/26 02:12:29;;;;;;;3.60;1.80;;;0.10;99.90;;;-141.84;80.20;18783.56;5050531;28;20655;-66
2023/02/26 02:15:14;;;;;;;2.77;1.73;;;0.10;99.90;;;-141.84;79.93;18740.91;5050689;28;20719;-64
2023/02/26 02:17:51;;;;;;;1.90;1.30;;;0.10;99.90;;;-141.84;80.49;18769.34;5067393;28;20307;-65
2023/02/26 02:20:52;;;;;;;1.80;1.60;;;0.00;99.90;;;-141.84;80.52;18775.44;5070187;28;20752;-64
2023/02/26 02:23:33;;;;;;;3.30;1.50;;;0.00;99.90;;;-141.84;80.78;18773.41;5070729;28;20223;-64
2023/02/26 02:26:54;;;;;;;2.53;1.73;;;0.00;99.90;;;-141.84;80.11;18789.66;5070162;28;20204;-65
2023/02/26 02:29:59;;;;;;;3.10;1.70;;;0.10;99.90;;;-141.84;80.39;18773.41;5070493;28;20228;-65
2023/02/26 02:32:36;;;;;;;2.47;1.40;;;0.10;99.90;;;-141.84;80.41;18805.91;5050352;28;20230;-64
2023/02/26 02:35:16;;;;;;;1.50;1.40;;;0.10;99.90;;;-141.84;80.30;18771.38;5050148;28;20314;-65
2023/02/26 02:37:50;;;;;;;2.30;1.60;;;0.10;99.90;;;-141.84;80.07;18771.38;5050662;28;20185;-63
2023/02/26 02:40:23;;;;;;;1.70;1.40;;;0.10;99.90;;;-141.84;80.42;18789.66;5050603;28;20208;-65
2023/02/26 02:42:59;;;;;;;1.63;1.43;;;0.10;99.90;;;-141.84;80.51;18777.47;5050032;28;20231;-64
2023/02/26 02:45:38;;;;;;;2.27;1.50;;;0.10;99.90;;;-141.84;80.86;18781.53;5050239;28;20234;-64
2023/02/26 02:48:18;;;;;;;2.13;1.60;;;-0.10;99.90;;;-141.84;80.18;18775.44;5049938;28;20317;-64
2023/02/26 02:50:53;;;;;;;2.53;1.40;;;0.00;99.90;;;-141.84;80.13;18779.50;5050226;28;20231;-64
2023/02/26 02:53:26;;;;;;;1.30;1.20;;;0.00;99.90;;;-141.84;79.91;18767.31;5050305;28;20221;-65
2023/02/26 02:56:03;;;;;;;3.70;1.50;;;0.10;99.90;;;-141.84;80.00;18763.25;5050663;28;20186;-64
2023/02/26 02:58:38;;;;;;;2.53;1.33;;;0.00;99.90;;;-141.84;79.84;18765.28;5050792;28;20186;-65
2023/02/26 03:01:11;;;;;;;2.53;1.77;;;;;;;-141.84;79.94;18769.34;5050009;28;20225;-66
2023/02/26 03:03:49;;;;;;;2.20;1.40;;;;;;;-141.84;80.22;18773.41;5049686;28;20233;-64
2023/02/26 03:06:17;;;;;;;2.20;1.37;;;-0.20;99.90;;;-141.84;80.30;18757.16;5049775;28;20655;-64
2023/02/26 03:08:48;;;;;;;2.43;1.40;;;-0.10;99.90;;;-141.84;80.14;18744.97;5050101;28;20237;-64
2023/02/26 03:11:16;;;;;;;2.50;1.50;;;-0.10;99.90;;;-141.84;80.18;18755.13;5050246;28;20235;-63
2023/02/26 03:13:47;;;;;;;3.27;1.70;;;-0.20;99.90;;;-141.84;80.38;18763.25;5050020;28;20209;-63
2023/02/26 03:16:44;;;;;;;3.00;1.53;;;-0.20;99.90;;;-141.84;80.00;18783.56;5050386;28;20189;-63
2023/02/26 03:19:25;;;;;;;2.37;1.50;;;-0.20;99.90;;;-141.84;80.17;18769.34;5049816;28;20270;-64
2023/02/26 03:22:02;;;;;;;2.87;1.60;;;-0.20;99.90;;;-141.84;79.95;18759.19;5049953;28;20228;-65
2023/02/26 03:24:40;;;;;;;4.10;2.03;;;-0.20;99.90;;;-141.84;80.00;18728.72;5049949;28;20227;-65
2023/02/26 03:27:17;;;;;;;3.63;1.80;;;-0.10;99.90;;;-141.84;79.77;18740.91;5049662;28;20242;-65
2023/02/26 03:29:55;;;;;;;1.60;1.50;;;-0.20;99.90;;;-141.84;79.72;18761.22;5049947;28;20283;-66
2023/02/26 03:32:29;;;;;;;2.77;1.80;;;-0.10;99.90;;;-141.84;79.53;18789.66;5049596;28;20220;-64
2023/02/26 03:35:07;;;;;;;2.87;1.70;;;-0.20;99.90;;;-141.84;79.52;18751.06;5049682;28;20208;-64
2023/02/26 03:37:42;;;;;;;2.30;1.70;;;-0.10;99.90;;;-141.84;79.63;18785.59;5050268;28;20198;-64
2023/02/26 03:40:19;;;;;;;2.67;1.70;;;-0.20;99.90;;;-141.84;79.98;18775.44;5049946;28;20216;-65
2023/02/26 03:42:55;;;;;;;2.93;1.70;;;-0.20;99.90;;;-141.84;79.72;18744.97;5049552;28;20440;-65
2023/02/26 03:45:30;;;;;;;2.50;1.87;;;-0.10;99.90;;;-141.84;79.71;18767.31;5049687;28;20220;-64
2023/02/26 03:48:01;;;;;;;3.57;1.67;;;-0.10;99.90;;;-141.84;79.87;18734.81;5049017;28;20826;-65
2023/02/26 03:50:36;;;;;;;3.77;1.77;;;-0.20;99.90;;;-141.84;79.69;18744.97;5049508;28;20232;-64
2023/02/26 03:53:09;;;;;;;3.37;1.60;;;-0.10;99.90;;;-141.84;80.10;18761.22;5049396;28;20696;-64
2023/02/26 03:55:45;;;;;;;5.07;1.90;;;-0.20;99.90;;;-141.84;79.94;18777.47;5049964;28;20191;-66
2023/02/26 03:58:13;;;;;;;1.63;1.40;;;-0.20;99.90;;;-141.84;79.93;18765.28;5049680;28;20681;-67
2023/02/26 04:00:45;;;;;;;3.73;1.97;;;-0.20;99.90;;;-141.84;79.70;18769.34;5049404;28;20229;-64
2023/02/26 04:03:24;;;;;;;3.00;1.40;;;-0.20;99.90;;;-141.84;79.61;18751.06;5049173;28;20240;-64
2023/02/26 04:05:54;;;;;;;1.60;1.50;;;-0.20;99.90;;;-141.84;79.42;18761.22;5049370;28;20236;-65
2023/02/26 04:08:24;;;;;;;3.70;1.50;;;-0.20;99.90;;;-141.84;79.71;18757.16;5049566;28;20252;-64
2023/02/26 04:10:58;;;;;;;3.00;1.47;;;-0.20;99.90;;;-141.84;79.65;18781.53;5049314;28;20205;-65
2023/02/26 04:13:27;;;;;;;2.83;1.50;;;-0.20;99.90;;;-141.84;79.93;18753.09;5049505;28;20206;-65
2023/02/26 04:15:55;;;;;;;2.83;1.63;;;-0.30;99.90;;;-141.84;80.01;18773.41;5049226;28;20248;-65
2023/02/26 04:18:23;;;;;;;3.70;1.40;;;-0.30;99.90;;;-141.84;80.11;18753.09;5048926;28;20480;-65
2023/02/26 04:20:53;;;;;;;2.20;1.40;;;-0.30;99.90;;;-141.84;79.88;18755.13;5049059;28;20246;-64
2023/02/26 04:23:22;;;;;;;1.57;1.30;;;;;;;-141.84;80.13;18765.28;5048878;28;20721;-66
2023/02/26 04:25:52;;;;;;;1.73;1.40;;;;;;;-141.84;79.70;18761.22;5049342;28;20254;-66
2023/02/26 04:28:21;;;;;;;1.53;1.40;;;;;;;-141.84;79.47;18761.22;5052646;28;20543;-64
2023/02/26 04:30:50;;;;;;;2.80;1.60;;;;;;;-141.84;79.38;18742.94;5052382;28;20239;-64
2023/02/26 04:33:19;;;;;;;1.97;1.40;;;-0.20;99.90;;;-141.84;79.58;18757.16;5052345;28;20245;-65
2023/02/26 04:35:47;;;;;;;1.67;1.40;;;-0.30;99.90;;;-141.84;79.61;18740.91;5052705;28;20619;-65
2023/02/26 04:38:17;;;;;;;1.70;1.30;;;-0.30;99.90;;;-141.84;79.47;18763.25;5052790;28;20270;-64
2023/02/26 04:40:45;;;;;;;2.20;1.53;;;-0.20;99.90;;;-141.84;80.09;18747.00;5052603;28;20238;-62
2023/02/26 04:43:13;;;;;;;1.87;1.40;;;-0.20;99.90;;;-141.84;79.90;18781.53;5052466;28;20296;-64
2023/02/26 04:45:42;;;;;;;1.77;1.30;;;-0.20;99.90;;;-141.84;79.62;18795.75;5051793;28;20227;-64
2023/02/26 04:48:10;;;;;;;3.83;1.50;;;0.00;99.90;;;-141.84;79.76;18807.94;5052135;28;20238;-64
2023/02/26 04:50:38;;;;;;;1.93;1.30;;;-0.20;99.90;;;-141.84;80.25;18805.91;5052081;28;20223;-66
2023/02/26 04:53:06;;;;;;;3.07;1.20;;;-0.20;99.90;;;-141.84;80.03;18773.41;5052448;28;20232;-65
2023/02/26 04:55:36;;;;;;;1.43;1.00;;;-0.20;99.90;;;-141.84;78.92;18761.22;5052871;28;20204;-64
2023/02/26 04:58:04;;;;;;;2.13;1.30;;;-0.10;99.90;;;-141.84;78.74;18749.03;5052144;28;20225;-64
2023/02/26 05:00:33;;;;;;;2.03;1.10;;;-0.10;99.90;;;-141.84;79.05;18742.94;5052156;28;20263;-64
2023/02/26 05:03:01;;;;;;;3.17;1.10;;;-0.10;99.90;;;-141.84;78.84;18757.16;5052313;28;20230;-63
2023/02/26 05:05:30;;;;;;;1.33;1.10;;;-0.10;99.90;;;-141.84;78.41;18797.78;5052071;28;20225;-64
2023/02/26 05:07:58;;;;;;;1.23;0.90;;;-0.10;99.90;;;-141.84;78.09;18749.03;5052377;28;20234;-65
2023/02/26 05:10:26;;;;;;;2.20;1.00;;;0.00;99.90;;;-141.84;78.35;18791.69;5052440;28;20217;-65
2023/02/26 05:12:57;;;;;;;3.10;1.20;;;;;;;-141.84;78.68;18789.66;5052023;28;20221;-64
2023/02/26 05:15:26;;;;;;;3.40;1.23;;;;;;;-141.84;78.85;18747.00;5052008;28;20232;-64
2023/02/26 05:17:55;;;;;;;2.30;1.37;;;;;;;-141.84;78.76;18757.16;5051683;28;20225;-65
2023/02/26 05:20:23;;;;;;;1.77;1.03;;;-0.20;99.90;;;-141.84;79.56;18747.00;5051632;28;20237;-65
2023/02/26 05:22:51;;;;;;;2.60;1.07;;;-0.20;99.90;;;-141.84;79.82;18747.00;5052030;28;20205;-64
2023/02/26 05:25:19;;;;;;;2.37;1.20;;;-0.30;99.90;;;-141.84;79.91;18753.09;5052204;28;20207;-66
2023/02/26 05:27:49;;;;;;;2.40;1.03;;;;;;;-141.84;79.47;18744.97;5051514;28;20251;-65
2023/02/26 05:30:19;;;;;;;1.20;1.10;;;;;;;-141.84;79.24;18742.94;5051834;28;20226;-65
2023/02/26 05:32:48;;;;;;;1.73;1.10;;;;;;;-141.84;78.73;18769.34;5051700;28;20329;-65
2023/02/26 05:35:16;;;;;;;1.70;1.13;;;-0.30;99.90;;;-141.84;78.82;18769.34;5051813;28;20234;-65
2023/02/26 05:37:44;;;;;;;1.63;1.00;;;-0.30;99.90;;;-141.84;78.89;18734.81;5051836;28;20204;-63
2023/02/26 05:40:13;;;;;;;3.20;1.27;;;-0.20;99.90;;;-141.84;79.33;18775.44;5051972;28;20195;-64
2023/02/26 05:42:41;;;;;;;3.10;1.10;;;-0.30;99.90;;;-141.84;78.21;18783.56;5051338;28;20719;-64
2023/02/26 05:45:10;;;;;;;2.47;1.10;;;-0.10;99.90;;;-141.84;78.33;18744.97;5051300;28;20227;-65
2023/02/26 05:47:39;;;;;;;4.57;1.10;;;-0.20;99.90;;;-141.84;78.35;18785.59;5050778;28;20709;-64
2023/02/26 05:50:10;;;;;;;3.83;1.20;;;-0.20;99.90;;;-141.84;77.83;18773.41;5051245;28;20346;-65
2023/02/26 05:52:38;;;;;;;1.77;1.17;;;-0.20;99.90;;;-141.84;78.08;18726.69;5051674;28;20747;-64
2023/02/26 05:55:09;;;;;;;2.13;0.90;;;-0.10;99.90;;;-141.84;77.83;18771.38;5050874;28;20229;-64
2023/02/26 05:57:37;;;;;;;2.27;1.17;;;-0.10;99.90;;;-141.84;77.97;18767.31;5051256;28;20229;-64
2023/02/26 06:00:07;;;;;;;1.90;1.00;;;;;;;-141.84;78.09;18753.09;5050965;28;20599;-64
2023/02/26 06:02:36;;;;;;;1.13;0.97;;;;;;;-141.84;77.59;18757.16;5051127;28;20224;-65
2023/02/26 06:05:08;;;;;;;2.10;0.87;;;;;;;-141.84;77.37;18805.91;5050958;28;20232;-66
2023/02/26 06:07:38;;;;;;;1.53;1.10;;;;;;;-141.84;77.23;18767.31;5051632;28;20212;-65
2023/02/26 06:10:08;;;;;;;2.27;1.00;;;;;;;-141.84;77.14;18789.66;5050806;28;20225;-65
2023/02/26 06:12:38;;;;;;;2.93;1.00;;;;;;;-141.84;76.86;18769.34;5050896;28;20231;-65
2023/02/26 06:15:09;;;;;;;3.13;0.97;;;;;;;-141.84;77.04;18785.59;5050756;28;20232;-66
2023/02/26 06:17:39;;;;;;;2.40;1.10;;;;;;;-141.84;76.50;18765.28;5050460;28;20225;-65
2023/02/26 06:20:12;;;;;;;2.20;0.90;;;;;;;-141.84;76.33;18791.69;5050401;28;20233;-64
2023/02/26 06:22:41;;;;;;;1.57;0.80;;;;;;;-141.84;76.63;18791.69;5051231;28;20183;-64
2023/02/26 06:25:11;;;;;;;1.50;0.93;;;;;;;-141.84;76.44;18783.56;5050726;28;20233;-65
2023/02/26 06:27:41;;;;;;;0.90;0.80;;;;;;;-141.84;76.32;18761.22;5050503;28;20241;-64
2023/02/26 06:30:11;;;;;;;2.93;1.13;;;;;;;-141.84;76.15;18793.72;5050340;28;20561;-65
2023/02/26 06:32:41;;;;;;;1.87;1.00;;;;;;;-141.84;76.68;18791.69;5050343;28;20247;-64
2023/02/26 06:35:12;;;;;;;1.50;1.10;;;;;;;-141.84;75.83;18789.66;5050477;28;20235;-66
2023/02/26 06:37:41;;;;;;;2.47;1.00;;;;;;;-141.84;75.47;18812.00;5050694;28;20645;-64
2023/02/26 06:40:11;;;;;;;1.33;0.90;;;0.10;99.90;;;-141.84;75.12;18818.09;5050662;28;20224;-65
2023/02/26 06:42:40;;;;;;;1.00;0.80;;;0.20;99.90;;;-141.84;75.45;18769.34;5050569;28;20238;-65
2023/02/26 06:45:09;;;;;;;2.20;1.00;;;0.10;99.90;;;-141.84;75.25;18777.47;5050290;28;20229;-64
2023/02/26 06:47:37;;;;;;;1.30;1.00;;;0.10;99.90;;;-141.84;74.47;18832.34;5049921;28;20231;-65
2023/02/26 06:50:07;;;;;;;2.33;1.07;;;0.20;99.90;;;-141.84;74.37;18785.59;5049528;28;20235;-65
2023/02/26 06:52:37;;;;;;;1.80;1.00;;;0.20;99.90;;;-141.84;74.70;18797.78;5050592;28;20470;-65
2023/02/26 06:55:06;;;;;;;2.73;1.40;;;0.20;99.90;;;-141.84;74.16;18812.00;5050012;28;20232;-64
2023/02/26 06:57:34;;;;;;;1.60;0.90;;;0.20;99.90;;;-141.84;74.59;18783.56;5049817;28;20723;-65
2023/02/26 07:00:07;;;;;;;1.83;0.93;;;0.20;99.90;;;-141.84;74.29;18783.56;5050128;28;20424;-64
2023/02/26 07:02:35;;;;;;;2.60;1.40;;;0.30;99.90;;;-141.84;73.84;18812.00;5049958;28;20250;-65
2023/02/26 07:05:04;;;;;;;1.73;1.33;;;0.40;99.90;;;-141.84;73.83;18805.91;5049471;28;20208;-64
2023/02/26 07:07:32;;;;;;;3.40;1.50;;;0.40;99.90;;;-141.84;73.27;18797.78;5050315;28;20239;-65
2023/02/26 07:10:02;;;;;;;1.00;0.90;;;0.50;99.90;;;-141.84;73.60;18785.59;5049687;28;20221;-64
2023/02/26 07:12:30;;;;;;;1.10;0.80;;;0.40;99.90;;;-141.84;74.00;18785.59;5049721;28;20234;-65
2023/02/26 07:14:58;;;;;;;2.30;0.93;;;0.40;99.90;;;-141.84;73.79;18805.91;5049860;28;20236;-65
2023/02/26 07:17:26;;;;;;;2.20;1.00;;;0.30;99.90;;;-141.84;73.34;18816.06;5049524;28;20613;-65
2023/02/26 07:19:54;;;;;;;2.10;1.10;;;0.40;99.90;;;-141.84;73.48;18822.19;5049516;28;20231;-65
2023/02/26 07:22:23;;;;;;;2.93;1.10;;;0.50;99.90;;;-141.84;73.54;18828.28;5050155;28;20212;-65
2023/02/26 07:24:51;;;;;;;2.23;1.30;;;0.50;99.90;;;-141.84;73.10;18807.94;5049836;28;20236;-65
2023/02/26 07:27:20;;;;;;;1.63;0.90;;;0.50;99.90;;;-141.84;72.96;18812.00;5049746;28;20240;-65
2023/02/26 07:29:49;;;;;;;2.13;1.00;;;0.50;99.90;;;-141.84;73.01;18830.31;5049960;28;20634;-64
2023/02/26 07:32:17;;;;;;;1.70;0.90;;;0.50;99.90;;;-141.84;73.08;18814.03;5049833;28;20244;-65
2023/02/26 07:34:45;;;;;;;1.80;0.90;;;0.50;99.90;;;-141.84;73.45;18826.25;5049957;28;20211;-63
2023/02/26 07:37:13;;;;;;;2.37;0.80;;;0.50;99.90;;;-141.84;73.33;18781.53;5049843;28;20688;-64
2023/02/26 07:39:41;;;;;;;1.90;1.00;;;0.50;99.90;;;-141.84;72.27;18866.88;5049429;28;20717;-64
2023/02/26 07:42:10;;;;;;;2.13;1.10;;;0.70;99.90;;;-141.84;71.44;18834.38;5049572;28;20239;-65
2023/02/26 07:44:40;;;;;;;1.90;0.87;;;0.80;99.90;;;-141.84;71.50;18848.59;5049760;28;20573;-65
2023/02/26 07:47:08;;;;;;;2.07;0.90;;;0.80;99.90;;;-141.84;72.08;18801.84;5049353;28;20221;-64
2023/02/26 07:49:37;;;;;;;2.77;1.10;;;0.70;99.90;;;-141.84;72.44;18807.94;5049905;28;20239;-66
2023/02/26 07:52:06;;;;;;;1.77;0.97;;;0.70;99.90;;;-141.84;72.18;18838.44;5049347;28;20252;-65
2023/02/26 07:54:35;;;;;;;1.87;1.00;;;0.80;99.90;;;-141.84;71.58;18862.81;5049563;28;20228;-65
2023/02/26 07:57:05;;;;;;;1.60;1.07;;;0.80;99.90;;;-141.84;72.21;18840.47;5049422;28;20236;-65
2023/02/26 07:59:33;;;;;;;1.03;0.90;;;0.80;99.90;;;-141.84;71.13;18889.22;5049428;28;20217;-66
2023/02/26 08:02:03;;;;;;;3.73;0.90;;;0.90;99.90;;;-141.84;70.97;18870.94;5050312;28;20208;-67
2023/02/26 08:04:31;;;;;;;2.57;1.10;;;1.00;99.90;;;-141.84;71.97;18830.31;5054105;28;20204;-66
2023/02/26 08:07:00;;;;;;;1.93;1.10;;;1.00;99.90;;;-141.84;71.03;18848.59;5053444;28;20760;-64
2023/02/26 08:09:29;;;;;;;1.83;0.90;;;1.00;99.90;;;-141.84;71.76;18850.63;5053264;28;20291;-64
2023/02/26 08:11:57;;;;;;;3.70;1.20;;;1.00;99.90;;;-141.84;70.72;18877.03;5053170;28;20232;-65
2023/02/26 08:14:25;;;;;;;2.43;1.07;;;1.10;99.90;;;-141.84;70.36;18828.28;5053396;28;20243;-64
2023/02/26 08:16:54;;;;;;;1.90;1.30;;;1.20;99.90;;;-141.84;70.07;18881.09;5052704;28;20205;-65
2023/02/26 08:19:23;;;;;;;2.20;1.10;;;1.30;99.90;;;-141.84;70.14;18911.56;5053504;28;20263;-67
2023/02/26 08:21:54;;;;;;;2.17;0.97;;;1.30;99.90;;;-141.84;69.94;18870.94;5037239;28;20232;-65
2023/02/26 08:24:22;;;;;;;1.83;0.90;;;1.30;99.90;;;-141.84;69.50;18877.03;5033094;28;20317;-65
2023/02/26 08:26:50;;;;;;;3.47;1.00;;;1.40;99.90;;;-141.84;69.62;18887.19;5032953;28;20230;-64
2023/02/26 08:29:20;;;;;;;2.70;1.20;;;1.30;99.90;;;-141.84;69.73;18856.72;5032922;28;20749;-65
2023/02/26 08:31:48;;;;;;;2.93;1.23;;;1.40;99.90;;;-141.84;68.75;18897.34;5042428;28;20193;-65
2023/02/26 08:34:17;;;;;;;2.63;1.20;;;1.40;99.90;;;-141.84;69.15;18879.06;5053205;28;20221;-64
2023/02/26 08:36:46;;;;;;;2.50;1.00;;;1.40;99.90;;;-141.84;67.94;18883.13;5052561;28;20233;-64
2023/02/26 08:39:15;;;;;;;1.20;1.10;;;1.50;99.90;;;-141.84;68.31;18883.13;5052545;28;20229;-65
2023/02/26 08:41:43;;;;;;;1.70;0.90;;;1.50;99.90;;;-141.84;67.74;18909.53;5043859;28;20351;-64
2023/02/26 08:44:11;;;;;;;1.27;1.10;;;1.50;99.90;;;-141.84;67.14;18889.22;5040037;28;20225;-65
2023/02/26 08:46:39;;;;;;;1.10;1.00;;;1.60;99.90;;;-141.84;66.99;18927.84;5044415;28;20195;-66
2023/02/26 08:49:07;;;;;;;1.27;0.90;;;1.60;99.90;;;-141.84;66.52;18913.59;5046111;28;20221;-64
2023/02/26 08:51:35;;;;;;;2.50;1.00;;;1.70;99.90;;;-141.84;66.57;18921.75;5052400;28;20224;-65
2023/02/26 08:54:05;;;;;;;1.77;1.17;;;1.70;99.90;;;-141.84;66.55;18921.75;5052322;28;20225;-65
2023/02/26 08:56:33;;;;;;;2.00;1.20;;;1.80;99.90;;;-141.84;66.65;18921.75;5052147;28;20225;-66
2023/02/26 08:59:01;;;;;;;1.13;0.97;;;1.70;99.90;;;-141.84;66.36;18927.84;5052360;28;20199;-65
2023/02/26 09:01:30;;;;;;;2.50;1.20;;;1.60;99.90;;;-141.84;66.25;18915.63;5051519;28;20212;-65
2023/02/26 09:03:58;;;;;;;2.27;1.30;;;1.70;99.90;;;-141.84;65.61;18948.16;5038150;28;20226;-65
2023/02/26 09:06:26;;;;;;;1.80;1.17;;;1.70;99.90;;;-141.84;65.92;18935.97;5032806;28;20226;-68
2023/02/26 09:08:55;;;;;;;2.30;1.37;;;1.60;99.90;;;-141.84;66.23;18919.69;5052168;28;20244;-66
2023/02/26 09:11:24;;;;;;;3.00;1.37;;;1.70;99.90;;;-141.84;67.31;18911.56;5052134;28;20232;-65
2023/02/26 09:13:53;;;;;;;1.97;1.20;;;1.60;99.90;;;-141.84;66.28;18911.56;5051867;28;20570;-64
2023/02/26 09:16:21;;;;;;;2.67;1.90;;;1.70;99.90;;;-141.84;65.22;18958.31;5052637;28;20193;-65
2023/02/26 09:18:50;;;;;;;1.77;1.20;;;1.90;99.90;;;-141.84;65.74;18903.44;5045057;28;20708;-64
2023/02/26 09:21:18;;;;;;;1.40;1.00;;;1.80;99.90;;;-141.84;65.44;18944.09;5046957;28;20240;-64
2023/02/26 09:23:46;;;;;;;3.77;1.27;;;1.90;99.90;;;-141.84;65.36;18952.22;5052144;28;20235;-65
2023/02/26 09:26:14;;;;;;;1.90;1.27;;;2.00;99.90;;;-141.84;65.17;18927.84;5052165;28;20233;-66
2023/02/26 09:28:44;;;;;;;1.27;1.13;;;2.10;99.90;;;-141.84;64.92;18952.22;5052483;28;20200;-65
2023/02/26 09:31:12;;;;;;;2.93;1.40;;;2.20;99.90;;;-141.84;63.71;19009.09;5052183;28;20241;-65
2023/02/26 09:33:40;;;;;;;2.30;1.20;;;2.40;99.90;;;-141.84;63.56;18994.88;5051559;28;20235;-64
2023/02/26 09:36:09;;;;;;;3.10;1.50;;;2.50;99.90;;;-141.84;62.95;19017.25;5051607;28;20225;-66
2023/02/26 09:38:37;;;;;;;3.47;1.30;;;2.70;99.90;;;-141.84;62.41;18998.94;5051515;28;20221;-64
2023/02/26 09:41:15;;;;;;;1.70;1.30;;;2.80;99.90;;;-141.84;62.43;19029.44;5051316;28;20225;-65
2023/02/26 09:44:13;;;;;;;1.30;1.00;;;2.90;99.90;;;-141.84;62.35;19000.97;5048838;28;20187;-64
2023/02/26 09:46:53;;;;;;;1.87;1.20;;;2.90;99.90;;;-141.84;62.84;19009.09;5046202;28;20228;-65
2023/02/26 09:49:51;;;;;;;3.20;1.37;;;2.90;99.90;;;-141.84;62.28;18994.88;5051786;28;20618;-64
2023/02/26 09:52:27;;;;;;;1.83;1.23;;;3.00;99.90;;;-141.84;61.88;19023.34;5051762;28;20224;-64
2023/02/26 09:55:04;;;;;;;2.80;1.53;;;3.10;99.90;;;-141.84;61.37;19082.25;5051037;28;20230;-64
2023/02/26 09:57:35;;;;;;;3.57;1.50;;;3.10;99.90;;;-141.84;60.78;19041.63;5051154;28;20315;-64
2023/02/26 10:00:23;;;;;;;2.17;1.00;;;3.20;99.90;;;-141.84;60.84;19000.97;5051148;28;20227;-64
2023/02/26 10:03:14;;;;;;;1.80;1.37;;;3.20;99.90;;;-141.84;60.96;19011.13;5050895;28;20237;-65
2023/02/26 10:05:59;;;;;;;2.80;1.17;;;3.20;99.90;;;-141.84;60.42;19043.66;5050775;28;20705;-64
2023/02/26 10:08:42;;;;;;;2.77;1.63;;;3.20;99.90;;;-141.84;60.36;19053.81;5050812;28;20222;-65
2023/02/26 10:11:21;;;;;;;1.30;1.07;;;3.10;99.90;;;-141.84;60.68;19039.59;5050913;28;20676;-65
2023/02/26 10:13:58;;;;;;;3.70;1.20;;;3.30;99.90;;;-141.84;59.60;19068.03;5051218;28;20187;-64
2023/02/26 10:16:33;;;;;;;1.83;1.00;;;3.30;99.90;;;-141.84;59.14;19074.13;5051213;28;20188;-65
2023/02/26 10:19:08;;;;;;;2.70;0.90;;;3.30;99.90;;;-141.84;59.11;19098.50;5050434;28;20719;-64
2023/02/26 10:21:45;;;;;;;1.83;1.10;;;3.30;99.90;;;-141.84;59.07;19088.34;5050444;28;20724;-64
2023/02/26 10:24:20;;;;;;;2.30;1.00;;;3.40;99.90;;;-141.84;58.73;19092.41;5050121;28;20226;-63
2023/02/26 10:27:00;;;;;;;1.43;1.20;;;3.30;99.90;;;-141.84;59.55;19082.25;5050801;28;20227;-64
2023/02/26 10:29:36;;;;;;;1.57;0.90;;;3.30;99.90;;;-141.84;60.09;19068.03;5050482;28;20613;-63
2023/02/26 10:32:24;;;;;;;1.53;0.80;;;3.30;99.90;;;-141.84;59.53;19092.41;5050546;28;20236;-64
2023/02/26 10:34:58;;;;;;;1.47;0.97;;;3.40;99.90;;;-141.84;58.55;19078.19;5050470;28;20204;-64
2023/02/26 10:37:46;;;;;;;1.73;0.80;;;3.50;99.90;;;-141.84;58.29;19063.97;5049092;28;20201;-62
2023/02/26 10:40:23;;;;;;;1.70;0.90;;;3.60;99.90;;;-141.84;57.92;19039.59;5050338;28;20217;-62
2023/02/26 10:43:01;;;;;;;0.97;0.77;;;3.40;99.90;;;-141.84;58.35;19112.75;5049858;28;20617;-61